^^
Station Historical Data
 
Daily Summary for November 17, 2017 Units:  English    Metric   Both
« Previous Day
Next Day »
Daily Weekly Monthly Yearly Custom
  Current: High: Low: Average:
Temperature: 56.5 °F 73.9 °F 52.2 °F 62.1 °F
Dew Point: 54.8 °F 57.7 °F 50.2 °F 54.1 °F
Humidity: 94% 94% 51% 77%
Wind Speed: 0.0mph 6.9mph 0.0mph 2.4mph
Wind Gust: 0.0mph 6.9mph - -
WindCalm - - ESE
Pressure: 30.11 in 30.19 in 30.07 in -
Precipitation: 0.00 in      
Historical Graphs
 
 
Tabular Data for November 17, 2017
Time Temperature Dew Point Pressure Wind Wind Speed Wind Gust Humidity Rainfall Rate (Hourly) Conditions
00:01 56.7 °F 52.8 °F 30.14 in North 2.3 mph 2.3 mph 87% 0.00 in CLR
00:06 56.5 °F 52.7 °F 30.14 in North 1.2 mph   87% 0.00 in CLR
00:11 56.5 °F 52.7 °F 30.14 in North 1.2 mph   87% 0.00 in CLR
00:21 56.1 °F 52.6 °F 30.14 in North 2.3 mph 2.3 mph 88% 0.00 in CLR
00:26 56.1 °F 52.6 °F 30.14 in North 3.5 mph 3.5 mph 88% 0.00 in CLR
00:31 56.1 °F 52.6 °F 30.14 in North 3.5 mph 3.5 mph 88% 0.00 in CLR
00:36 56.1 °F 52.6 °F 30.14 in North 2.3 mph 2.3 mph 88% 0.00 in CLR
00:41 56.1 °F 52.6 °F 30.14 in North 3.5 mph 3.5 mph 88% 0.00 in CLR
00:46 55.9 °F 52.4 °F 30.14 in North 2.3 mph 2.3 mph 88% 0.00 in CLR
00:51 55.8 °F 52.3 °F 30.14 in North 3.5 mph 3.5 mph 88% 0.00 in CLR
00:56 55.8 °F 52.3 °F 30.14 in North 1.2 mph 2.0 mph 88% 0.00 in CLR
01:01 55.8 °F 52.6 °F 30.14 in North 1.2 mph 2.0 mph 89% 0.00 in CLR
01:06 55.8 °F 52.3 °F 30.14 in North 3.5 mph 3.5 mph 88% 0.00 in CLR
01:11 55.8 °F 52.3 °F 30.14 in North 3.5 mph 3.5 mph 88% 0.00 in CLR
01:16 55.8 °F 52.3 °F 30.14 in North 3.5 mph 3.5 mph 88% 0.00 in CLR
01:21 55.6 °F 52.1 °F 30.14 in North 3.5 mph 3.5 mph 88% 0.00 in CLR
01:26 55.6 °F 52.4 °F 30.14 in North 2.3 mph 2.3 mph 89% 0.00 in CLR
01:31 55.4 °F 52.2 °F 30.14 in North 4.0 mph 4.0 mph 89% 0.00 in CLR
01:36 55.2 °F 52.0 °F 30.14 in North 3.5 mph 3.5 mph 89% 0.00 in CLR
01:41 55.2 °F 52.0 °F 30.14 in NNE 2.0 mph 2.0 mph 89% 0.00 in CLR
01:46 55.0 °F 51.9 °F 30.13 in NNE 3.5 mph 3.5 mph 89% 0.00 in CLR
01:51 55.0 °F 51.9 °F 30.13 in North 2.3 mph 2.3 mph 89% 0.00 in CLR
01:56 55.0 °F 52.2 °F 30.13 in North 3.5 mph 3.5 mph 90% 0.00 in CLR
02:01 54.9 °F 52.0 °F 30.13 in North 2.3 mph 2.3 mph 90% 0.00 in CLR
02:06 54.9 °F 51.7 °F 30.13 in North 1.2 mph 2.0 mph 89% 0.00 in CLR
02:11 54.9 °F 51.7 °F 30.13 in North 1.2 mph 2.0 mph 89% 0.00 in CLR
02:16 54.9 °F 52.0 °F 30.13 in North 3.5 mph 3.5 mph 90% 0.00 in CLR
02:21 54.9 °F 52.0 °F 30.12 in North 2.3 mph 2.3 mph 90% 0.00 in CLR
02:26 54.9 °F 52.0 °F 30.13 in North 2.3 mph 2.3 mph 90% 0.00 in CLR
02:31 54.9 °F 52.0 °F 30.13 in North 3.5 mph 3.5 mph 90% 0.00 in CLR
02:36 54.9 °F 52.0 °F 30.13 in North 2.3 mph 2.3 mph 90% 0.00 in CLR
02:41 54.7 °F 51.8 °F 30.13 in North 2.3 mph 2.3 mph 90% 0.00 in CLR
02:46 54.7 °F 51.8 °F 30.13 in North 3.5 mph 3.5 mph 90% 0.00 in CLR
02:51 54.7 °F 51.8 °F 30.13 in North 3.5 mph 3.5 mph 90% 0.00 in CLR
02:56 54.5 °F 51.6 °F 30.13 in North 1.2 mph 2.0 mph 90% 0.00 in CLR
03:01 54.3 °F 51.4 °F 30.13 in North 1.2 mph 1.2 mph 90% 0.00 in CLR
03:06 54.0 °F 51.1 °F 30.12 in North 2.3 mph 2.3 mph 90% 0.00 in CLR
03:11 54.0 °F 51.4 °F 30.12 in North 1.2 mph 1.2 mph 91% 0.00 in CLR
03:16 54.0 °F 51.4 °F 30.12 in North 1.2 mph 1.2 mph 91% 0.00 in CLR
03:21 53.8 °F 51.5 °F 30.12 in NNE 3.5 mph 3.5 mph 92% 0.00 in CLR
03:26 53.8 °F 51.5 °F 30.12 in North 4.6 mph 4.6 mph 92% 0.00 in CLR
03:31 53.8 °F 51.5 °F 30.12 in NNE 2.9 mph 2.9 mph 92% 0.00 in CLR
03:36 53.6 °F 51.3 °F 30.12 in NNE 2.3 mph 2.3 mph 92% 0.00 in CLR
03:41 53.6 °F 51.3 °F 30.12 in NNE 2.3 mph 2.3 mph 92% 0.00 in CLR
03:51 53.4 °F 51.2 °F 30.12 in North 2.3 mph 2.3 mph 92% 0.00 in CLR
03:56 53.2 °F 51.0 °F 30.12 in NE 3.5 mph 3.5 mph 92% 0.00 in CLR
04:01 53.2 °F 51.0 °F 30.12 in NE 3.5 mph 3.5 mph 92% 0.00 in CLR
04:06 53.2 °F 51.3 °F 30.13 in North 3.5 mph 3.5 mph 93% 0.00 in CLR
04:11 53.1 °F 50.8 °F 30.13 in North 2.3 mph 2.3 mph 92% 0.00 in CLR
04:16 52.9 °F 50.9 °F 30.12 in North 2.3 mph 2.3 mph 93% 0.00 in CLR
04:21 52.9 °F 50.9 °F 30.13 in North 3.5 mph 3.5 mph 93% 0.00 in CLR
04:26 52.7 °F 50.7 °F 30.13 in North 2.3 mph 2.3 mph 93% 0.00 in CLR
04:31 52.5 °F 50.6 °F 30.13 in North 3.5 mph 3.5 mph 93% 0.00 in CLR
04:36 52.5 °F 50.6 °F 30.13 in North 2.3 mph 2.3 mph 93% 0.00 in CLR
04:41 52.3 °F 50.4 °F 30.13 in North 3.5 mph 3.5 mph 93% 0.00 in CLR
04:46 52.3 °F 50.4 °F 30.13 in North 2.3 mph 2.3 mph 93% 0.00 in CLR
04:51 52.2 °F 50.2 °F 30.13 in North 3.5 mph 3.5 mph 93% 0.00 in CLR
04:56 52.2 °F 50.5 °F 30.13 in North 2.0 mph 2.0 mph 94% 0.00 in CLR
05:01 52.2 °F 50.5 °F 30.13 in North 2.3 mph 2.3 mph 94% 0.00 in CLR
05:06 52.2 °F 50.5 °F 30.13 in North 3.5 mph 3.5 mph 94% 0.00 in CLR
05:11 52.3 °F 50.7 °F 30.14 in North 3.5 mph 3.5 mph 94% 0.00 in CLR
05:16 52.3 °F 50.7 °F 30.14 in North 3.5 mph 3.5 mph 94% 0.00 in CLR
05:21 52.3 °F 50.7 °F 30.14 in North 2.3 mph 2.3 mph 94% 0.00 in CLR
05:26 52.3 °F 50.7 °F 30.14 in North 3.5 mph 3.5 mph 94% 0.00 in CLR
05:31 52.3 °F 50.7 °F 30.14 in North 2.3 mph 2.3 mph 94% 0.00 in CLR
05:36 52.3 °F 50.7 °F 30.14 in North 3.5 mph 3.5 mph 94% 0.00 in CLR
05:41 52.3 °F 50.7 °F 30.14 in North 3.5 mph 3.5 mph 94% 0.00 in CLR
05:46 52.3 °F 50.7 °F 30.14 in North 3.5 mph 3.5 mph 94% 0.00 in CLR
05:51 52.3 °F 50.4 °F 30.14 in North 3.5 mph 3.5 mph 93% 0.00 in CLR
05:56 52.5 °F 50.6 °F 30.14 in NNE 3.5 mph 3.5 mph 93% 0.00 in CLR
06:01 52.5 °F 50.6 °F 30.14 in ENE 4.6 mph 4.6 mph 93% 0.00 in CLR
06:06 52.5 °F 50.6 °F 30.15 in NNE 2.9 mph 2.9 mph 93% 0.00 in CLR
06:11 52.5 °F 50.6 °F 30.15 in North 3.5 mph 3.5 mph 93% 0.00 in CLR
06:16 52.5 °F 50.6 °F 30.15 in North 3.5 mph 3.5 mph 93% 0.00 in CLR
06:21 52.5 °F 50.6 °F 30.15 in North 3.5 mph 3.5 mph 93% 0.00 in CLR
06:26 52.7 °F 50.7 °F 30.16 in North 3.5 mph 3.5 mph 93% 0.00 in CLR
06:31 52.9 °F 50.9 °F 30.15 in North 3.5 mph 3.5 mph 93% 0.00 in CLR
06:36 52.9 °F 50.6 °F 30.16 in North 4.6 mph 4.6 mph 92% 0.00 in CLR
06:41 53.2 °F 51.0 °F 30.16 in North 5.8 mph 5.8 mph 92% 0.00 in CLR
06:46 53.4 °F 51.2 °F 30.16 in NNE 6.0 mph 6.0 mph 92% 0.00 in CLR
06:51 53.8 °F 51.2 °F 30.17 in North 3.5 mph 3.5 mph 91% 0.00 in CLR
07:01 54.3 °F 51.4 °F 30.16 in North 4.6 mph 4.6 mph 90% 0.00 in CLR
07:06 54.7 °F 51.8 °F 30.16 in North 4.6 mph 4.6 mph 90% 0.00 in CLR
07:11 55.2 °F 52.0 °F 30.16 in NNE 3.5 mph 3.5 mph 89% 0.00 in CLR
07:16 55.8 °F 51.9 °F 30.17 in East 4.0 mph 4.0 mph 87% 0.00 in CLR
07:21 56.3 °F 52.2 °F 30.17 in North 3.5 mph 3.5 mph 86% 0.00 in CLR
07:26 56.7 °F 52.2 °F 30.16 in North 3.5 mph 3.5 mph 85% 0.00 in CLR
07:31 57.0 °F 52.6 °F 30.17 in North 3.5 mph 3.5 mph 85% 0.00 in CLR
07:36 57.6 °F 52.4 °F 30.17 in North 4.6 mph 4.6 mph 83% 0.00 in CLR
07:41 57.6 °F 52.4 °F 30.17 in North 2.3 mph 2.3 mph 83% 0.00 in CLR
07:46 58.5 °F 52.6 °F 30.17 in NE 4.9 mph 4.9 mph 81% 0.00 in CLR
07:51 58.8 °F 53.0 °F 30.17 in NE 2.9 mph 2.9 mph 81% 0.00 in CLR
07:56 59.4 °F 52.8 °F 30.18 in North 2.3 mph 2.3 mph 79% 0.00 in CLR
08:01 59.5 °F 53.0 °F 30.18 in North 3.5 mph 3.5 mph 79% 0.00 in CLR
08:06 60.1 °F 53.2 °F 30.19 in NE 3.5 mph 3.5 mph 78% 0.00 in CLR
08:11 60.4 °F 53.2 °F 30.18 in East 3.5 mph 3.5 mph 77% 0.00 in CLR
08:16 61.2 °F 54.2 °F 30.19 in NE 3.5 mph 3.5 mph 78% 0.00 in CLR
08:21 61.5 °F 53.5 °F 30.19 in NNW 2.3 mph 2.3 mph 75% 0.00 in CLR
08:26 61.5 °F 53.5 °F 30.19 in NNW 1.2 mph 2.0 mph 75% 0.00 in CLR
08:31 62.4 °F 54.0 °F 30.19 in East 2.0 mph 2.0 mph 74% 0.00 in CLR
08:36 62.8 °F 54.0 °F 30.19 in SE 3.5 mph 3.5 mph 73% 0.00 in CLR
08:41 63.1 °F 54.3 °F 30.19 in SE 4.0 mph 4.0 mph 73% 0.00 in CLR
08:46 63.7 °F 54.5 °F 30.18 in North 3.5 mph 3.5 mph 72% 0.00 in CLR
08:51 64.2 °F 54.6 °F 30.19 in ESE 4.0 mph 4.0 mph 71% 0.00 in CLR
08:56 64.6 °F 54.2 °F 30.19 in North 3.5 mph 3.5 mph 69% 0.00 in CLR
09:01 64.9 °F 54.9 °F 30.19 in North 2.3 mph 2.3 mph 70% 0.00 in CLR
09:06 65.7 °F 55.2 °F 30.19 in ENE 4.9 mph 4.9 mph 69% 0.00 in CLR
09:11 66.0 °F 54.7 °F 30.19 in NNE 2.3 mph 2.3 mph 67% 0.00 in CLR
09:16 66.0 °F 54.7 °F 30.19 in NNE 1.2 mph 2.0 mph 67% 0.00 in CLR
09:21 66.2 °F 54.9 °F 30.19 in ENE 2.3 mph 2.3 mph 67% 0.00 in CLR
09:23 66.4 °F 54.7 °F 30.19 in East 3.5 mph 3.5 mph 66% 0.00 in CLR
09:28 66.9 °F 55.2 °F 30.18 in SE 3.5 mph 3.5 mph 66% 0.00 in CLR
09:33 67.6 °F 55.9 °F 30.19 in South 2.3 mph 2.3 mph 66% 0.00 in CLR
09:38 67.6 °F 55.9 °F 30.19 in SE 1.2 mph 2.0 mph 66% 0.00 in CLR
09:43 67.6 °F 55.5 °F 30.19 in SE 4.6 mph 4.6 mph 65% 0.00 in CLR
09:48 67.5 °F 55.3 °F 30.19 in South 3.5 mph 3.5 mph 65% 0.00 in CLR
09:53 67.8 °F 55.6 °F 30.19 in SSE 4.6 mph 4.6 mph 65% 0.00 in CLR
09:58 68.4 °F 55.7 °F 30.18 in SSE 3.5 mph 3.5 mph 64% 0.00 in CLR
10:03 68.5 °F 55.4 °F 30.18 in SSE 4.0 mph 4.0 mph 63% 0.00 in CLR
10:08 68.5 °F 55.4 °F 30.18 in South 2.3 mph 2.9 mph 63% 0.00 in CLR
10:13 68.5 °F 55.4 °F 30.18 in South 2.3 mph 2.9 mph 63% 0.00 in CLR
10:18 68.5 °F 55.4 °F 30.17 in South 4.0 mph 4.0 mph 63% 0.00 in CLR
10:23 68.7 °F 55.2 °F 30.17 in SSE 5.8 mph 5.8 mph 62% 0.00 in CLR
10:28 69.1 °F 55.5 °F 30.16 in SSE 4.6 mph 4.6 mph 62% 0.00 in CLR
10:33 69.3 °F 55.7 °F 30.16 in SSE 3.5 mph 3.5 mph 62% 0.00 in CLR
10:38 69.3 °F 55.2 °F 30.16 in SE 6.0 mph 6.0 mph 61% 0.00 in CLR
10:42 69.4 °F 55.9 °F 30.16 in SE 3.5 mph 3.5 mph 62% 0.00 in CLR
10:47 69.3 °F 55.2 °F 30.15 in SSW 4.9 mph 4.9 mph 61% 0.00 in CLR
10:52 69.3 °F 55.2 °F 30.15 in SSE 6.9 mph 6.9 mph 61% 0.00 in CLR
10:57 69.3 °F 54.8 °F 30.15 in SSE 3.5 mph 4.0 mph 60% 0.00 in CLR
11:02 69.4 °F 54.5 °F 30.15 in SE 4.9 mph 4.9 mph 59% 0.00 in CLR
11:07 69.4 °F 54.5 °F 30.15 in East 3.5 mph 4.0 mph 59% 0.00 in CLR
11:12 69.4 °F 54.5 °F 30.15 in East 3.5 mph 4.0 mph 59% 0.00 in CLR
11:17 69.8 °F 54.8 °F 30.14 in SE 5.8 mph 5.8 mph 59% 0.00 in CLR
11:22 70.0 °F 54.5 °F 30.14 in SE 4.9 mph 4.9 mph 58% 0.00 in CLR
11:27 70.0 °F 54.5 °F 30.14 in SE 5.8 mph 5.8 mph 58% 0.00 in CLR
11:32 70.3 °F 54.9 °F 30.13 in SE 3.5 mph 4.0 mph 58% 0.00 in CLR
11:37 70.5 °F 55.0 °F 30.13 in SE 4.0 mph 4.0 mph 58% 0.00 in CLR
11:42 71.1 °F 55.1 °F 30.12 in SE 4.9 mph 4.9 mph 57% 0.00 in CLR
11:47 71.1 °F 55.1 °F 30.12 in SSE 4.6 mph 4.6 mph 57% 0.00 in CLR
11:52 71.6 °F 55.6 °F 30.12 in SW 1.2 mph 2.0 mph 57% 0.00 in CLR
11:57 71.6 °F 56.0 °F 30.11 in SW 2.3 mph 2.3 mph 58% 0.00 in CLR
12:02 72.0 °F 55.9 °F 30.11 in SSE 3.5 mph 3.5 mph 57% 0.00 in CLR
12:07 71.8 °F 54.7 °F 30.11 in ESE 5.8 mph 5.8 mph 55% 0.00 in CLR
12:12 71.8 °F 54.7 °F 30.11 in ESE 4.0 mph 4.0 mph 55% 0.00 in CLR
12:17 72.3 °F 55.7 °F 30.11 in SSW 2.3 mph 2.3 mph 56% 0.00 in CLR
12:22 72.9 °F 55.7 °F 30.11 in South 1.2 mph 1.2 mph 55% 0.00 in CLR
12:27 73.0 °F 55.4 °F 30.10 in SSW 1.2 mph 1.2 mph 54% 0.00 in CLR
12:32 73.0 °F 53.8 °F 30.10 in SSE 6.9 mph 6.9 mph 51% 0.00 in CLR
12:37 73.2 °F 55.1 °F 30.10 in SSE 4.0 mph 4.0 mph 53% 0.00 in CLR
12:42 73.6 °F 54.3 °F 30.10 in SSE 4.0 mph 4.0 mph 51% 0.00 in CLR
12:47 73.4 °F 54.7 °F 30.10 in SSE 1.2 mph 2.0 mph 52% 0.00 in CLR
12:52 73.8 °F 55.0 °F 30.10 in SSE 2.3 mph 2.3 mph 52% 0.00 in CLR
12:57 73.9 °F 54.7 °F 30.10 in SSE 3.5 mph 3.5 mph 51% 0.00 in CLR
13:02 73.9 °F 54.7 °F 30.10 in SSE 3.5 mph 3.5 mph 51% 0.00 in CLR
13:07 73.9 °F 54.7 °F 30.09 in SSE 3.5 mph 3.5 mph 51% 0.00 in CLR
13:12 73.9 °F 54.7 °F 30.09 in SSW 3.5 mph 3.5 mph 51% 0.00 in CLR
13:17 73.4 °F 56.7 °F 30.09 in WSW 4.6 mph 4.6 mph 56% 0.00 in CLR
13:22 73.0 °F 56.9 °F 30.09 in WSW 3.5 mph 3.5 mph 57% 0.00 in CLR
13:27 72.9 °F 56.2 °F 30.08 in West 3.5 mph 3.5 mph 56% 0.00 in CLR
13:32 72.7 °F 57.0 °F 30.08 in WSW 4.0 mph 4.0 mph 58% 0.00 in CLR
13:37 72.7 °F 57.0 °F 30.08 in West 3.5 mph 3.5 mph 58% 0.00 in CLR
13:42 72.9 °F 56.7 °F 30.08 in WNW 2.9 mph 2.9 mph 57% 0.00 in CLR
13:47 72.5 °F 56.9 °F 30.08 in West 4.0 mph 4.0 mph 58% 0.00 in CLR
13:53 72.3 °F 56.7 °F 30.08 in SW 3.5 mph 3.5 mph 58% 0.00 in CLR
13:58 72.7 °F 57.0 °F 30.08 in WSW 2.0 mph 2.0 mph 58% 0.00 in CLR
14:03 72.9 °F 56.7 °F 30.08 in SSW 3.5 mph 3.5 mph 57% 0.00 in CLR
14:08 72.9 °F 56.7 °F 30.08 in SW 1.2 mph 1.2 mph 57% 0.00 in CLR
14:13 72.9 °F 57.2 °F 30.08 in WNW 3.5 mph 3.5 mph 58% 0.00 in CLR
14:18 73.0 °F 56.9 °F 30.08 in SSW 4.9 mph 4.9 mph 57% 0.00 in CLR
14:23 73.0 °F 56.9 °F 30.08 in WSW 4.0 mph 4.0 mph 57% 0.00 in CLR
14:28 72.9 °F 56.7 °F 30.08 in WSW 2.3 mph 2.3 mph 57% 0.00 in CLR
14:33 72.5 °F 56.4 °F 30.08 in WSW 2.3 mph 2.3 mph 57% 0.00 in CLR
14:38 72.7 °F 57.0 °F 30.08 in NW 4.6 mph 4.6 mph 58% 0.00 in CLR
14:43 72.3 °F 56.7 °F 30.07 in SW 1.2 mph 2.0 mph 58% 0.00 in CLR
14:48 72.3 °F 56.7 °F 30.07 in SW 1.2 mph 2.0 mph 58% 0.00 in CLR
14:53 73.4 °F 57.2 °F 30.07 in Calm     57% 0.00 in CLR
14:58 72.7 °F 56.6 °F 30.07 in WSW 3.5 mph 3.5 mph 57% 0.00 in CLR
15:03 72.1 °F 57.0 °F 30.08 in SW 2.3 mph 2.3 mph 59% 0.00 in CLR
15:08 72.3 °F 56.7 °F 30.08 in SW 2.3 mph 2.3 mph 58% 0.00 in CLR
15:13 72.1 °F 57.0 °F 30.08 in West 1.2 mph 1.2 mph 59% 0.00 in CLR
15:18 72.0 °F 56.8 °F 30.08 in Calm   0.9 mph 59% 0.00 in CLR
15:23 72.1 °F 57.5 °F 30.08 in Calm     60% 0.00 in CLR
15:24 72.1 °F 57.5 °F 30.08 in Calm     60% 0.00 in CLR
15:29 72.1 °F 57.5 °F 30.08 in Calm     60% 0.00 in CLR
15:34 72.1 °F 57.5 °F 30.08 in WNW 3.5 mph   60% 0.00 in CLR
15:39 71.8 °F 57.1 °F 30.08 in WNW 2.3 mph 2.3 mph 60% 0.00 in CLR
15:44 71.2 °F 57.1 °F 30.08 in WSW 1.2 mph 1.2 mph 61% 0.00 in CLR
15:49 70.5 °F 56.9 °F 30.08 in Calm     62% 0.00 in CLR
15:54 70.0 °F 56.8 °F 30.08 in Calm     63% 0.00 in CLR
15:59 69.6 °F 56.9 °F 30.08 in Calm     64% 0.00 in CLR
16:04 69.6 °F 56.9 °F 30.08 in Calm     64% 0.00 in CLR
16:09 68.5 °F 57.1 °F 30.08 in Calm     67% 0.00 in CLR
16:14 68.2 °F 57.2 °F 30.08 in Calm     68% 0.00 in CLR
16:19 67.8 °F 56.9 °F 30.08 in Calm     68% 0.00 in CLR
16:24 67.5 °F 56.5 °F 30.09 in SSW 1.2 mph   68% 0.00 in CLR
16:29 67.3 °F 56.8 °F 30.09 in Calm     69% 0.00 in CLR
16:34 66.9 °F 56.8 °F 30.09 in Calm     70% 0.00 in CLR
16:39 66.6 °F 56.9 °F 30.09 in Calm     71% 0.00 in CLR
16:44 66.0 °F 56.7 °F 30.08 in Calm     72% 0.00 in CLR
16:49 65.8 °F 56.9 °F 30.08 in Calm     73% 0.00 in CLR
16:54 65.5 °F 57.0 °F 30.08 in Calm     74% 0.00 in CLR
16:59 65.3 °F 57.2 °F 30.08 in SSW 1.2 mph   75% 0.00 in CLR
17:04 65.1 °F 57.4 °F 30.08 in Calm     76% 0.00 in CLR
17:09 65.1 °F 57.4 °F 30.08 in Calm     76% 0.00 in CLR
17:14 64.6 °F 57.6 °F 30.08 in Calm     78% 0.00 in CLR
17:19 64.2 °F 57.2 °F 30.09 in Calm     78% 0.00 in CLR
17:24 64.0 °F 57.7 °F 30.09 in Calm     80% 0.00 in CLR
17:29 63.7 °F 57.0 °F 30.08 in Calm     79% 0.00 in CLR
17:34 63.3 °F 57.0 °F 30.09 in Calm     80% 0.00 in CLR
17:39 63.0 °F 57.0 °F 30.09 in Calm     81% 0.00 in CLR
17:44 62.4 °F 56.9 °F 30.09 in Calm     82% 0.00 in CLR
17:49 62.1 °F 56.8 °F 30.09 in Calm     83% 0.00 in CLR
17:54 61.7 °F 56.5 °F 30.09 in Calm     83% 0.00 in CLR
17:59 61.3 °F 56.1 °F 30.09 in Calm     83% 0.00 in CLR
18:04 61.3 °F 56.8 °F 30.09 in Calm     85% 0.00 in CLR
18:09 61.0 °F 56.1 °F 30.09 in Calm     84% 0.00 in CLR
18:14 60.6 °F 55.8 °F 30.10 in Calm     84% 0.00 in CLR
18:19 60.1 °F 55.2 °F 30.10 in Calm     84% 0.00 in CLR
18:24 59.9 °F 55.4 °F 30.10 in Calm     85% 0.00 in CLR
18:29 59.9 °F 55.4 °F 30.10 in Calm     85% 0.00 in CLR
18:34 59.9 °F 56.3 °F 30.11 in Calm     88% 0.00 in CLR
18:39 59.5 °F 56.0 °F 30.10 in Calm     88% 0.00 in CLR
18:44 59.5 °F 56.0 °F 30.10 in Calm     88% 0.00 in CLR
18:49 59.2 °F 55.6 °F 30.11 in Calm     88% 0.00 in CLR
18:54 58.8 °F 55.3 °F 30.11 in Calm     88% 0.00 in CLR
18:59 58.6 °F 55.4 °F 30.11 in Calm     89% 0.00 in CLR
19:04 58.3 °F 55.1 °F 30.11 in Calm     89% 0.00 in CLR
19:09 58.1 °F 55.2 °F 30.10 in Calm     90% 0.00 in CLR
19:14 57.9 °F 54.7 °F 30.10 in Calm     89% 0.00 in CLR
19:19 57.6 °F 54.6 °F 30.10 in Calm     90% 0.00 in CLR
19:24 57.4 °F 54.5 °F 30.10 in Calm     90% 0.00 in CLR
19:29 57.4 °F 54.8 °F 30.11 in Calm     91% 0.00 in CLR
19:34 57.4 °F 54.8 °F 30.10 in Calm     91% 0.00 in CLR
19:39 57.0 °F 54.4 °F 30.10 in Calm     91% 0.00 in CLR
19:44 57.0 °F 54.4 °F 30.11 in Calm     91% 0.00 in CLR
19:49 57.0 °F 54.4 °F 30.11 in Calm     91% 0.00 in CLR
19:54 56.3 °F 53.7 °F 30.11 in Calm     91% 0.00 in CLR
19:59 56.3 °F 53.7 °F 30.11 in Calm     91% 0.00 in CLR
20:04 56.5 °F 54.5 °F 30.11 in Calm     93% 0.00 in CLR
20:09 56.5 °F 54.5 °F 30.11 in Calm     93% 0.00 in CLR
20:14 56.7 °F 54.7 °F 30.11 in Calm     93% 0.00 in CLR
20:19 56.3 °F 54.3 °F 30.11 in Calm     93% 0.00 in CLR
20:24 56.5 °F 54.8 °F 30.11 in Calm     94% 0.00 in CLR
Panama City, Florida, USA
Compliments of Weather Underground - 3.75 mb